createdAt,value
2019-04-21T00:01:54.548Z,99.90
2019-04-21T00:04:34.519Z,99.90
2019-04-21T00:07:11.746Z,99.90
2019-04-21T00:09:50.239Z,99.90
2019-04-21T00:12:07.461Z,99.90
2019-04-21T00:14:30.276Z,99.90
2019-04-21T00:16:56.115Z,99.90
2019-04-21T00:19:36.662Z,99.90
2019-04-21T00:22:16.148Z,99.90
2019-04-21T00:24:44.439Z,99.90
2019-04-21T00:27:21.393Z,99.90
2019-04-21T00:29:47.893Z,99.90
2019-04-21T00:32:13.618Z,99.90
2019-04-21T00:34:30.173Z,99.90
2019-04-21T00:37:09.434Z,99.90
2019-04-21T00:42:14.613Z,99.90
2019-04-21T00:44:38.126Z,99.90
2019-04-21T00:47:13.980Z,99.90
2019-04-21T00:49:54.244Z,99.90
2019-04-21T00:52:48.842Z,99.90
2019-04-21T00:57:42.728Z,99.90
2019-04-21T01:00:07.879Z,99.90
2019-04-21T01:02:43.677Z,99.90
2019-04-21T01:05:15.438Z,99.90
2019-04-21T01:07:38.573Z,99.90
2019-04-21T01:09:58.344Z,99.90
2019-04-21T01:12:37.347Z,99.90
2019-04-21T01:15:16.729Z,99.90
2019-04-21T01:17:38.830Z,99.90
2019-04-21T01:19:57.453Z,99.90
2019-04-21T01:22:11.585Z,99.90
2019-04-21T01:24:43.353Z,99.90
2019-04-21T01:27:18.527Z,99.90
2019-04-21T01:29:59.833Z,99.90
2019-04-21T01:32:29.638Z,99.90
2019-04-21T01:34:58.224Z,99.90
2019-04-21T01:37:34.412Z,99.90
2019-04-21T01:40:04.714Z,99.90
2019-04-21T01:42:26.586Z,99.90
2019-04-21T01:44:54.858Z,99.90
2019-04-21T01:47:20.479Z,99.90
2019-04-21T01:49:46.644Z,99.90
2019-04-21T01:52:31.643Z,99.90
2019-04-21T01:55:25.132Z,99.90
2019-04-21T01:58:11.346Z,99.90
2019-04-21T02:00:50.170Z,99.90
2019-04-21T02:03:41.720Z,99.90
2019-04-21T02:05:58.656Z,99.90
2019-04-21T02:08:17.695Z,99.90
2019-04-21T02:10:58.771Z,99.90
2019-04-21T02:13:17.098Z,99.90
2019-04-21T02:15:58.152Z,99.90
2019-04-21T02:18:18.147Z,99.90
2019-04-21T02:20:40.150Z,99.90
2019-04-21T02:23:27.924Z,99.90
2019-04-21T02:25:52.619Z,99.90
2019-04-21T02:28:24.803Z,99.90
2019-04-21T02:36:00.653Z,99.90
2019-04-21T02:38:30.747Z,99.90
2019-04-21T02:43:24.927Z,99.90
2019-04-21T02:45:56.639Z,99.90
2019-04-21T02:50:47.218Z,99.90
2019-04-21T02:53:34.743Z,99.90
2019-04-21T02:55:51.185Z,99.90
2019-04-21T02:58:34.423Z,99.90
2019-04-21T03:04:13.256Z,99.90
2019-04-21T03:17:17.380Z,99.90
2019-04-21T03:22:12.977Z,99.90
2019-04-21T03:24:53.507Z,99.90
2019-04-21T03:27:21.038Z,99.90
2019-04-21T03:32:39.928Z,99.90
2019-04-21T03:37:07.698Z,99.90
2019-04-21T03:39:45.502Z,99.90
2019-04-21T03:42:21.472Z,99.90
2019-04-21T03:44:37.302Z,99.90
2019-04-21T03:49:54.758Z,99.90
2019-04-21T03:52:11.533Z,99.90
2019-04-21T03:54:49.251Z,99.90
2019-04-21T03:59:36.487Z,99.90
2019-04-21T04:02:36.910Z,99.90
2019-04-21T04:05:03.693Z,99.90
2019-04-21T04:10:08.194Z,99.90
2019-04-21T04:12:36.564Z,99.90
2019-04-21T04:15:20.550Z,99.90
2019-04-21T04:17:32.959Z,99.90
2019-04-21T04:20:04.048Z,99.90
2019-04-21T04:25:07.386Z,99.90
2019-04-21T04:30:07.560Z,99.90
2019-04-21T04:40:14.569Z,99.90
2019-04-21T04:43:11.799Z,99.90
2019-04-21T04:45:38.460Z,99.90
2019-04-21T04:48:05.799Z,99.90
2019-04-21T04:50:40.581Z,99.90
2019-04-21T04:55:43.394Z,99.90
2019-04-21T04:58:18.656Z,99.90
2019-04-21T05:01:02.474Z,99.90
2019-04-21T05:03:00.988Z,99.90
2019-04-21T05:06:05.179Z,99.90
2019-04-21T05:08:08.338Z,99.90
2019-04-21T05:10:52.887Z,99.90
2019-04-21T05:12:56.977Z,99.90
2019-04-21T05:15:37.740Z,99.90
2019-04-21T05:17:57.885Z,99.90
2019-04-21T05:20:26.055Z,99.90
2019-04-21T05:22:54.299Z,99.90
2019-04-21T05:25:19.574Z,99.90
2019-04-21T05:27:46.987Z,99.90
2019-04-21T05:30:45.070Z,99.90
2019-04-21T05:33:29.259Z,99.90
2019-04-21T05:36:04.312Z,99.90
2019-04-21T05:38:40.695Z,99.90
2019-04-21T05:41:02.380Z,99.90
2019-04-21T05:43:39.834Z,99.90
2019-04-21T05:46:13.381Z,99.90
2019-04-21T05:48:48.422Z,99.90
2019-04-21T05:51:11.775Z,99.90
2019-04-21T05:53:42.467Z,99.90
2019-04-21T05:56:19.191Z,99.90
2019-04-21T05:58:43.486Z,99.90
2019-04-21T06:11:13.220Z,99.90
2019-04-21T06:16:12.036Z,99.90
2019-04-21T06:21:10.801Z,99.90
2019-04-21T06:23:51.549Z,99.90
2019-04-21T06:28:40.172Z,99.90
2019-04-21T06:31:12.596Z,99.90
2019-04-21T06:33:43.223Z,99.90
2019-04-21T06:39:00.327Z,99.90
2019-04-21T06:41:29.668Z,99.90
2019-04-21T06:43:56.657Z,99.90
2019-04-21T06:46:26.365Z,99.90
2019-04-21T06:48:49.827Z,99.90
2019-04-21T06:51:22.461Z,99.90
2019-04-21T06:53:57.842Z,99.90
2019-04-21T06:56:13.741Z,99.90
2019-04-21T06:58:43.641Z,99.90
2019-04-21T07:01:18.577Z,99.90
2019-04-21T07:03:48.768Z,99.90
2019-04-21T07:06:12.637Z,99.90
2019-04-21T07:08:54.937Z,99.90
2019-04-21T07:11:08.433Z,99.90
2019-04-21T07:13:38.829Z,99.90
2019-04-21T07:16:15.668Z,99.90
2019-04-21T07:18:41.588Z,99.90
2019-04-21T07:21:06.503Z,99.90
2019-04-21T07:23:47.517Z,99.90
2019-04-21T07:26:15.663Z,99.90
2019-04-21T07:28:45.950Z,99.90
2019-04-21T07:31:14.127Z,99.90
2019-04-21T07:33:53.914Z,99.90
2019-04-21T07:36:01.336Z,99.90
2019-04-21T07:38:36.576Z,99.90
2019-04-21T07:40:59.585Z,99.90
2019-04-21T07:43:31.547Z,99.90
2019-04-21T07:45:58.608Z,99.90
2019-04-21T07:48:40.119Z,99.90
2019-04-21T07:51:32.220Z,99.90
2019-04-21T07:54:04.640Z,99.90
2019-04-21T07:56:16.618Z,99.90
2019-04-21T07:59:05.588Z,99.90
2019-04-21T08:01:30.834Z,99.90
2019-04-21T08:04:03.741Z,99.90
2019-04-21T08:06:38.744Z,99.90
2019-04-21T08:08:53.520Z,99.90
2019-04-21T08:11:19.715Z,99.90
2019-04-21T08:13:55.235Z,99.90
2019-04-21T08:16:24.397Z,99.90
2019-04-21T08:18:51.921Z,99.90
2019-04-21T08:21:24.697Z,99.90
2019-04-21T08:23:47.940Z,99.90
2019-04-21T08:26:27.674Z,99.00
2019-04-21T08:28:58.457Z,98.50
2019-04-21T08:31:23.604Z,97.40
2019-04-21T08:33:55.386Z,96.00
2019-04-21T08:41:20.269Z,94.60
2019-04-21T08:43:51.376Z,94.10
2019-04-21T08:46:19.858Z,94.20
2019-04-21T08:48:54.278Z,92.00
2019-04-21T08:53:53.672Z,90.50
2019-04-21T08:56:34.210Z,90.90
2019-04-21T08:59:28.864Z,89.90
2019-04-21T09:02:01.395Z,89.10
2019-04-21T09:04:28.551Z,89.20
2019-04-21T09:07:21.355Z,87.00
2019-04-21T09:09:34.019Z,85.30
2019-04-21T09:11:59.692Z,84.50
2019-04-21T09:14:33.524Z,83.80
2019-04-21T09:16:56.754Z,83.00
2019-04-21T09:19:39.806Z,81.30
2019-04-21T09:22:03.869Z,82.10
2019-04-21T09:24:28.814Z,81.10
2019-04-21T09:26:58.036Z,79.70
2019-04-21T09:29:18.023Z,78.40
2019-04-21T09:31:41.825Z,77.90
2019-04-21T09:34:08.946Z,77.60
2019-04-21T09:36:43.100Z,78.60
2019-04-21T09:39:15.051Z,78.50
2019-04-21T09:41:41.086Z,77.50
2019-04-21T09:44:17.150Z,76.50
2019-04-21T09:46:44.443Z,76.30
2019-04-21T09:49:12.596Z,75.30
2019-04-21T09:51:37.616Z,75.50
2019-04-21T09:54:10.392Z,76.40
2019-04-21T09:56:46.239Z,76.10
2019-04-21T09:59:14.939Z,75.30
2019-04-21T10:01:50.038Z,75.00
2019-04-21T10:04:05.494Z,73.40
2019-04-21T10:06:33.051Z,73.20
2019-04-21T10:09:04.162Z,72.20
2019-04-21T10:11:31.114Z,71.00
2019-04-21T10:13:58.924Z,70.70
2019-04-21T10:16:45.067Z,69.80
2019-04-21T10:19:13.208Z,69.60
2019-04-21T10:21:42.328Z,68.90
2019-04-21T10:24:10.552Z,68.20
2019-04-21T10:26:38.465Z,69.10
2019-04-21T10:29:13.050Z,67.50
2019-04-21T10:31:36.678Z,67.80
2019-04-21T10:34:05.292Z,67.20
2019-04-21T10:36:33.232Z,66.90
2019-04-21T10:39:02.303Z,65.70
2019-04-21T10:41:29.994Z,65.30
2019-04-21T10:43:58.917Z,65.60
2019-04-21T10:46:26.745Z,66.00
2019-04-21T10:48:56.802Z,64.90
2019-04-21T10:51:32.873Z,64.00
2019-04-21T10:54:03.978Z,64.10
2019-04-21T10:56:37.094Z,63.90
2019-04-21T10:59:10.237Z,64.00
2019-04-21T11:01:38.989Z,64.60
2019-04-21T11:04:31.379Z,64.30
2019-04-21T11:07:04.324Z,63.20
2019-04-21T11:09:26.338Z,63.50
2019-04-21T11:11:55.626Z,62.60
2019-04-21T11:14:23.493Z,62.60
2019-04-21T11:16:52.916Z,62.20
2019-04-21T11:19:20.558Z,61.80
2019-04-21T11:21:49.307Z,61.30
2019-04-21T11:24:18.117Z,61.60
2019-04-21T11:26:46.021Z,61.00
2019-04-21T11:29:14.958Z,61.90
2019-04-21T11:31:43.115Z,62.10
2019-04-21T11:34:11.304Z,61.80
2019-04-21T11:36:40.388Z,61.50
2019-04-21T11:39:39.300Z,61.80
2019-04-21T11:41:59.673Z,61.80
2019-04-21T11:44:28.919Z,60.60
2019-04-21T11:46:56.689Z,61.10
2019-04-21T11:49:27.096Z,60.80
2019-04-21T11:51:55.115Z,61.20
2019-04-21T11:54:24.619Z,60.60
2019-04-21T11:56:52.881Z,60.60
2019-04-21T11:59:21.775Z,60.70
2019-04-21T12:01:54.035Z,60.60
2019-04-21T12:04:23.330Z,60.20
2019-04-21T12:06:52.485Z,59.60
2019-04-21T12:09:20.990Z,59.90
2019-04-21T12:11:49.378Z,59.50
2019-04-21T12:14:18.329Z,59.70
2019-04-21T12:16:46.775Z,60.00
2019-04-21T12:19:14.639Z,59.10
2019-04-21T12:21:53.304Z,59.40
2019-04-21T12:24:13.160Z,59.20
2019-04-21T12:26:42.166Z,59.00
2019-04-21T12:29:10.052Z,58.40
2019-04-21T12:31:54.847Z,58.20
2019-04-21T12:34:23.690Z,59.10
2019-04-21T12:36:52.711Z,57.30
2019-04-21T12:39:20.863Z,57.90
2019-04-21T12:41:48.901Z,57.70
2019-04-21T12:44:16.626Z,57.30
2019-04-21T12:46:45.549Z,57.00
2019-04-21T12:49:13.801Z,56.10
2019-04-21T12:51:41.866Z,56.80
2019-04-21T12:54:09.982Z,57.60
2019-04-21T12:56:37.979Z,56.80
2019-04-21T12:59:05.680Z,57.30
2019-04-21T13:01:33.304Z,57.40
2019-04-21T13:04:01.834Z,57.20
2019-04-21T13:06:29.730Z,56.40
2019-04-21T13:09:03.375Z,57.20
2019-04-21T13:11:26.912Z,57.00
2019-04-21T13:13:55.740Z,56.90
2019-04-21T13:16:23.499Z,58.00
2019-04-21T13:18:51.286Z,58.10
2019-04-21T13:21:20.139Z,57.50
2019-04-21T13:23:49.132Z,58.00
2019-04-21T13:26:27.609Z,58.70
2019-04-21T13:28:47.924Z,57.80
2019-04-21T13:31:16.163Z,57.50
2019-04-21T13:33:44.197Z,57.50
2019-04-21T13:36:11.899Z,57.70
2019-04-21T13:39:31.489Z,57.50
2019-04-21T13:41:41.295Z,57.40
2019-04-21T13:44:13.276Z,57.40
2019-04-21T13:46:42.975Z,57.40
2019-04-21T13:49:11.591Z,57.30
2019-04-21T13:51:39.268Z,57.40
2019-04-21T13:54:07.364Z,57.30
2019-04-21T13:56:36.340Z,57.10
2019-04-21T13:59:04.386Z,56.70
2019-04-21T14:01:32.220Z,57.20
2019-04-21T14:03:59.851Z,57.10
2019-04-21T14:06:27.630Z,57.00
2019-04-21T14:08:55.289Z,56.90
2019-04-21T14:11:23.151Z,57.20
2019-04-21T14:13:52.003Z,56.00
2019-04-21T14:16:20.317Z,57.00
2019-04-21T14:18:48.022Z,57.30
2019-04-21T14:21:15.661Z,57.30
2019-04-21T14:23:47.428Z,57.30
2019-04-21T14:26:14.197Z,57.50
2019-04-21T14:28:43.024Z,57.00
2019-04-21T14:31:10.701Z,57.80
2019-04-21T14:33:38.404Z,57.00
2019-04-21T14:36:06.040Z,56.80
2019-04-21T14:38:34.476Z,56.50
2019-04-21T14:41:02.403Z,56.40
2019-04-21T14:43:30.157Z,56.40
2019-04-21T14:46:02.870Z,56.40
2019-04-21T14:49:03.412Z,56.60
2019-04-21T14:51:41.118Z,56.30
2019-04-21T14:54:38.402Z,56.50
2019-04-21T14:57:07.199Z,56.70
2019-04-21T14:59:35.231Z,56.70
2019-04-21T15:02:03.892Z,56.50
2019-04-21T15:04:33.362Z,56.70
2019-04-21T15:07:01.402Z,56.90
2019-04-21T15:09:29.471Z,57.10
2019-04-21T15:11:58.195Z,57.20
2019-04-21T15:14:26.245Z,57.50
2019-04-21T15:16:54.548Z,57.80
2019-04-21T15:19:22.501Z,57.70
2019-04-21T15:21:50.511Z,57.60
2019-04-21T15:24:18.379Z,57.40
2019-04-21T15:26:46.441Z,57.20
2019-04-21T15:29:15.084Z,57.50
2019-04-21T15:31:44.808Z,57.40
2019-04-21T15:34:13.121Z,57.70
2019-04-21T15:36:41.924Z,58.70
2019-04-21T15:39:10.057Z,59.10
2019-04-21T15:41:38.570Z,58.60
2019-04-21T15:44:08.275Z,58.10
2019-04-21T15:46:37.592Z,58.70
2019-04-21T15:49:09.170Z,58.80
2019-04-21T15:51:37.997Z,58.30
2019-04-21T15:54:06.818Z,58.20
2019-04-21T15:56:42.618Z,58.70
2019-04-21T15:59:44.885Z,59.40
2019-04-21T16:02:30.678Z,59.50
2019-04-21T16:04:59.018Z,59.80
2019-04-21T16:07:26.707Z,59.80
2019-04-21T16:09:55.123Z,60.20
2019-04-21T16:12:22.776Z,60.60
2019-04-21T16:14:50.466Z,60.70
2019-04-21T16:17:19.230Z,60.50
2019-04-21T16:19:48.029Z,60.60
2019-04-21T16:22:16.810Z,60.00
2019-04-21T16:24:46.059Z,60.60
2019-04-21T16:27:15.294Z,61.00
2019-04-21T16:29:43.865Z,61.40
2019-04-21T16:32:14.615Z,61.40
2019-04-21T16:34:48.988Z,61.30
2019-04-21T16:37:11.832Z,61.80
2019-04-21T16:39:39.590Z,60.70
2019-04-21T16:42:08.489Z,60.70
2019-04-21T16:44:38.889Z,60.80
2019-04-21T16:47:07.660Z,61.10
2019-04-21T16:49:35.827Z,61.50
2019-04-21T16:52:20.389Z,62.20
2019-04-21T16:54:51.869Z,62.10
2019-04-21T16:57:28.057Z,62.30
2019-04-21T17:00:00.255Z,62.20
2019-04-21T17:02:28.374Z,62.90
2019-04-21T17:04:56.305Z,63.10
2019-04-21T17:07:26.280Z,63.20
2019-04-21T17:09:54.888Z,63.30
2019-04-21T17:12:24.066Z,63.60
2019-04-21T17:15:08.830Z,63.70
2019-04-21T17:17:43.025Z,64.10
2019-04-21T17:19:54.201Z,64.50
2019-04-21T17:22:21.777Z,64.80
2019-04-21T17:24:50.509Z,64.50
2019-04-21T17:27:20.751Z,65.50
2019-04-21T17:29:48.672Z,66.00
2019-04-21T17:32:18.258Z,66.20
2019-04-21T17:34:46.188Z,66.70
2019-04-21T17:37:15.146Z,66.80
2019-04-21T17:39:43.052Z,66.90
2019-04-21T17:42:18.581Z,67.20
2019-04-21T17:44:41.269Z,68.10
2019-04-21T17:47:20.076Z,68.10
2019-04-21T17:49:39.269Z,68.30
2019-04-21T17:52:30.298Z,68.50
2019-04-21T17:55:20.977Z,68.70
2019-04-21T17:57:57.048Z,69.10
2019-04-21T18:00:49.374Z,69.50
2019-04-21T18:03:02.018Z,69.00
2019-04-21T18:05:36.308Z,70.40
2019-04-21T18:07:54.371Z,70.90
2019-04-21T18:10:29.006Z,71.50
2019-04-21T18:12:52.370Z,71.90
2019-04-21T18:15:34.007Z,72.50
2019-04-21T18:17:40.399Z,72.90
2019-04-21T18:20:10.006Z,73.40
2019-04-21T18:22:53.200Z,74.00
2019-04-21T18:25:31.740Z,74.50
2019-04-21T18:27:52.602Z,75.10
2019-04-21T18:30:46.896Z,75.60
2019-04-21T18:33:22.192Z,76.20
2019-04-21T18:36:04.625Z,77.00
2019-04-21T18:39:04.462Z,77.80
2019-04-21T18:41:17.421Z,78.50
2019-04-21T18:44:17.701Z,79.30
2019-04-21T18:46:55.412Z,80.10
2019-04-21T18:49:09.179Z,81.00
2019-04-21T18:52:02.233Z,81.90
2019-04-21T18:54:41.441Z,82.40
2019-04-21T18:57:04.496Z,83.50
2019-04-21T18:59:31.325Z,84.30
2019-04-21T19:01:59.711Z,85.30
2019-04-21T19:04:27.412Z,86.00
2019-04-21T19:07:10.840Z,86.90
2019-04-21T19:09:59.409Z,87.80
2019-04-21T19:12:16.736Z,89.00
2019-04-21T19:14:52.126Z,90.20
2019-04-21T19:17:39.679Z,90.90
2019-04-21T19:22:23.192Z,92.50
2019-04-21T19:24:55.230Z,93.60
2019-04-21T19:29:31.878Z,96.50
2019-04-21T19:32:11.947Z,97.80
2019-04-21T19:34:23.714Z,99.40
2019-04-21T19:36:52.007Z,99.90
2019-04-21T19:39:33.860Z,99.90
2019-04-21T19:41:58.395Z,99.90
2019-04-21T19:44:36.987Z,99.90
2019-04-21T19:47:03.897Z,99.90
2019-04-21T19:49:32.073Z,99.90
2019-04-21T19:51:52.282Z,99.90
2019-04-21T19:54:22.101Z,99.90
2019-04-21T19:56:42.650Z,99.90
2019-04-21T19:59:18.026Z,99.90
2019-04-21T20:01:41.353Z,99.90
2019-04-21T20:04:10.435Z,99.90
2019-04-21T20:06:49.793Z,99.90
2019-04-21T20:09:27.690Z,99.90
2019-04-21T20:11:55.503Z,99.90
2019-04-21T20:16:50.384Z,99.90
2019-04-21T20:19:11.633Z,99.90
2019-04-21T20:21:35.790Z,99.90
2019-04-21T20:24:10.676Z,99.90
2019-04-21T20:26:37.957Z,99.90
2019-04-21T20:29:20.156Z,99.90
2019-04-21T20:31:49.012Z,99.90
2019-04-21T20:34:29.823Z,99.90
2019-04-21T20:36:51.860Z,99.90
2019-04-21T20:39:08.322Z,99.90
2019-04-21T20:41:41.973Z,99.90
2019-04-21T20:44:18.426Z,99.90
2019-04-21T20:46:45.132Z,99.90
2019-04-21T20:49:14.419Z,99.90
2019-04-21T20:51:42.566Z,99.90
2019-04-21T20:54:15.993Z,99.90
2019-04-21T20:56:45.212Z,99.90
2019-04-21T20:59:11.921Z,99.90
2019-04-21T21:01:44.400Z,99.90
2019-04-21T21:04:12.962Z,99.90
2019-04-21T21:06:43.838Z,99.90
2019-04-21T21:09:10.157Z,99.90
2019-04-21T21:11:46.723Z,99.90
2019-04-21T21:14:11.806Z,99.90
2019-04-21T21:16:47.603Z,99.90
2019-04-21T21:19:18.935Z,99.90
2019-04-21T21:21:38.429Z,99.90
2019-04-21T21:24:09.692Z,99.90
2019-04-21T21:26:36.701Z,99.90
2019-04-21T21:28:58.773Z,99.90
2019-04-21T21:31:38.401Z,99.90
2019-04-21T21:34:10.041Z,99.90
2019-04-21T21:36:39.816Z,99.90
2019-04-21T21:39:08.772Z,99.90
2019-04-21T21:41:28.865Z,99.90
2019-04-21T21:43:56.915Z,99.90
2019-04-21T21:46:35.160Z,99.90
2019-04-21T21:48:59.354Z,99.90
2019-04-21T21:51:28.999Z,99.90
2019-04-21T21:53:46.417Z,99.90
2019-04-21T21:56:14.562Z,99.90
2019-04-21T21:58:44.234Z,99.90
2019-04-21T22:01:14.857Z,99.90
2019-04-21T22:03:46.577Z,99.90
2019-04-21T22:06:17.574Z,99.90
2019-04-21T22:08:42.556Z,99.90
2019-04-21T22:11:10.940Z,99.90
2019-04-21T22:13:47.491Z,99.90
2019-04-21T22:16:13.557Z,99.90
2019-04-21T22:19:01.558Z,99.90
2019-04-21T22:21:18.786Z,99.90
2019-04-21T22:23:47.818Z,99.90
2019-04-21T22:26:07.280Z,99.90
2019-04-21T22:28:35.969Z,99.90
2019-04-21T22:31:11.734Z,99.90
2019-04-21T22:33:41.871Z,99.90
2019-04-21T22:36:18.009Z,99.90
2019-04-21T22:38:46.405Z,99.90
2019-04-21T22:41:14.404Z,99.90
2019-04-21T22:43:36.483Z,99.90
2019-04-21T22:46:01.253Z,99.90
2019-04-21T22:48:29.373Z,99.90
2019-04-21T22:50:58.378Z,99.90
2019-04-21T22:53:29.240Z,99.90
2019-04-21T22:56:00.558Z,99.90
2019-04-21T22:58:31.720Z,99.90
2019-04-21T23:00:58.610Z,99.90
2019-04-21T23:03:25.238Z,99.90
2019-04-21T23:05:53.743Z,99.90
2019-04-21T23:08:26.597Z,99.90
2019-04-21T23:10:59.257Z,99.90
2019-04-21T23:13:23.491Z,99.90
2019-04-21T23:15:55.580Z,99.90
2019-04-21T23:18:37.459Z,99.90
2019-04-21T23:21:08.487Z,99.90
2019-04-21T23:23:42.263Z,99.90
2019-04-21T23:26:09.134Z,99.90
2019-04-21T23:28:42.223Z,99.90
2019-04-21T23:31:06.405Z,99.90
2019-04-21T23:33:19.558Z,99.90
2019-04-21T23:35:49.041Z,99.90
2019-04-21T23:38:16.491Z,99.90
2019-04-21T23:40:47.595Z,99.90
2019-04-21T23:43:20.529Z,99.90
2019-04-21T23:45:46.247Z,99.90
2019-04-21T23:48:26.028Z,99.90
2019-04-21T23:50:51.196Z,99.90
2019-04-21T23:53:13.130Z,99.90
2019-04-21T23:55:41.176Z,99.90
2019-04-21T23:58:16.392Z,99.90
